sensor_id;sensor_type;location;lat;lon;timestamp;P1;durP1;ratioP1;P2;durP2;ratioP2
24459;SDS011;12630;50.860;5.714;2023-05-06T00:02:05;5.82;;;4.25;;
24459;SDS011;12630;50.860;5.714;2023-05-06T00:04:33;7.00;;;4.20;;
24459;SDS011;12630;50.860;5.714;2023-05-06T00:07:01;5.43;;;4.15;;
24459;SDS011;12630;50.860;5.714;2023-05-06T00:09:28;4.32;;;3.92;;
24459;SDS011;12630;50.860;5.714;2023-05-06T00:11:56;7.50;;;4.00;;
24459;SDS011;12630;50.860;5.714;2023-05-06T00:14:23;5.72;;;3.97;;
24459;SDS011;12630;50.860;5.714;2023-05-06T00:16:50;7.18;;;4.68;;
24459;SDS011;12630;50.860;5.714;2023-05-06T00:19:18;8.27;;;4.75;;
24459;SDS011;12630;50.860;5.714;2023-05-06T00:21:46;6.43;;;3.50;;
24459;SDS011;12630;50.860;5.714;2023-05-06T00:24:13;6.95;;;4.07;;
24459;SDS011;12630;50.860;5.714;2023-05-06T00:26:41;10.15;;;3.50;;
24459;SDS011;12630;50.860;5.714;2023-05-06T00:29:08;6.18;;;3.65;;
24459;SDS011;12630;50.860;5.714;2023-05-06T00:31:35;8.82;;;3.88;;
24459;SDS011;12630;50.860;5.714;2023-05-06T00:34:02;6.03;;;3.53;;
24459;SDS011;12630;50.860;5.714;2023-05-06T00:36:30;8.40;;;3.45;;
24459;SDS011;12630;50.860;5.714;2023-05-06T00:38:58;5.25;;;3.45;;
24459;SDS011;12630;50.860;5.714;2023-05-06T00:41:29;5.70;;;3.30;;
24459;SDS011;12630;50.860;5.714;2023-05-06T00:43:57;6.78;;;3.55;;
24459;SDS011;12630;50.860;5.714;2023-05-06T00:46:24;5.00;;;3.28;;
24459;SDS011;12630;50.860;5.714;2023-05-06T00:48:51;5.60;;;3.33;;
24459;SDS011;12630;50.860;5.714;2023-05-06T00:51:19;6.82;;;3.13;;
24459;SDS011;12630;50.860;5.714;2023-05-06T00:53:48;4.72;;;3.00;;
24459;SDS011;12630;50.860;5.714;2023-05-06T00:56:17;5.03;;;3.35;;
24459;SDS011;12630;50.860;5.714;2023-05-06T00:58:44;5.50;;;3.00;;
24459;SDS011;12630;50.860;5.714;2023-05-06T01:01:11;4.53;;;2.85;;
24459;SDS011;12630;50.860;5.714;2023-05-06T01:03:39;7.43;;;3.25;;
24459;SDS011;12630;50.860;5.714;2023-05-06T01:06:07;4.97;;;3.03;;
24459;SDS011;12630;50.860;5.714;2023-05-06T01:08:41;3.92;;;2.63;;
24459;SDS011;12630;50.860;5.714;2023-05-06T01:11:15;4.88;;;2.67;;
24459;SDS011;12630;50.860;5.714;2023-05-06T01:13:49;4.60;;;3.08;;
24459;SDS011;12630;50.860;5.714;2023-05-06T01:16:22;7.13;;;3.50;;
24459;SDS011;12630;50.860;5.714;2023-05-06T01:18:53;4.35;;;2.70;;
24459;SDS011;12630;50.860;5.714;2023-05-06T01:21:21;4.13;;;2.75;;
24459;SDS011;12630;50.860;5.714;2023-05-06T01:23:55;4.90;;;3.10;;
24459;SDS011;12630;50.860;5.714;2023-05-06T01:26:24;4.38;;;2.60;;
24459;SDS011;12630;50.860;5.714;2023-05-06T01:28:51;5.70;;;2.90;;
24459;SDS011;12630;50.860;5.714;2023-05-06T01:31:22;6.00;;;2.92;;
24459;SDS011;12630;50.860;5.714;2023-05-06T01:33:53;4.10;;;2.97;;
24459;SDS011;12630;50.860;5.714;2023-05-06T01:36:31;3.38;;;2.80;;
24459;SDS011;12630;50.860;5.714;2023-05-06T01:39:13;3.47;;;2.80;;
24459;SDS011;12630;50.860;5.714;2023-05-06T01:41:43;3.45;;;2.72;;
24459;SDS011;12630;50.860;5.714;2023-05-06T01:44:14;3.72;;;2.60;;
24459;SDS011;12630;50.860;5.714;2023-05-06T01:46:42;4.75;;;2.53;;
24459;SDS011;12630;50.860;5.714;2023-05-06T01:49:10;3.38;;;2.72;;
24459;SDS011;12630;50.860;5.714;2023-05-06T01:51:45;3.67;;;2.45;;
24459;SDS011;12630;50.860;5.714;2023-05-06T01:54:14;4.32;;;2.97;;
24459;SDS011;12630;50.860;5.714;2023-05-06T01:56:41;4.35;;;2.42;;
24459;SDS011;12630;50.860;5.714;2023-05-06T01:59:09;4.13;;;2.70;;
24459;SDS011;12630;50.860;5.714;2023-05-06T02:01:36;3.90;;;2.78;;
24459;SDS011;12630;50.860;5.714;2023-05-06T02:04:03;5.05;;;3.08;;
24459;SDS011;12630;50.860;5.714;2023-05-06T02:06:30;3.90;;;2.70;;
24459;SDS011;12630;50.860;5.714;2023-05-06T02:08:58;3.45;;;2.88;;
24459;SDS011;12630;50.860;5.714;2023-05-06T02:11:26;5.38;;;2.90;;
24459;SDS011;12630;50.860;5.714;2023-05-06T02:13:54;4.85;;;2.47;;
24459;SDS011;12630;50.860;5.714;2023-05-06T02:16:22;4.43;;;2.85;;
24459;SDS011;12630;50.860;5.714;2023-05-06T02:18:52;5.10;;;2.50;;
24459;SDS011;12630;50.860;5.714;2023-05-06T02:21:20;6.72;;;3.10;;
24459;SDS011;12630;50.860;5.714;2023-05-06T02:23:51;5.10;;;2.45;;
24459;SDS011;12630;50.860;5.714;2023-05-06T02:26:18;3.65;;;2.55;;
24459;SDS011;12630;50.860;5.714;2023-05-06T02:28:47;4.25;;;2.65;;
24459;SDS011;12630;50.860;5.714;2023-05-06T02:31:14;4.85;;;2.67;;
24459;SDS011;12630;50.860;5.714;2023-05-06T02:33:43;4.47;;;2.47;;
24459;SDS011;12630;50.860;5.714;2023-05-06T02:36:10;3.13;;;1.95;;
24459;SDS011;12630;50.860;5.714;2023-05-06T02:38:38;3.67;;;1.95;;
24459;SDS011;12630;50.860;5.714;2023-05-06T02:41:05;3.33;;;2.25;;
24459;SDS011;12630;50.860;5.714;2023-05-06T02:43:32;3.90;;;2.10;;
24459;SDS011;12630;50.860;5.714;2023-05-06T02:46:01;3.72;;;2.28;;
24459;SDS011;12630;50.860;5.714;2023-05-06T02:48:28;4.07;;;2.10;;
24459;SDS011;12630;50.860;5.714;2023-05-06T02:50:55;2.28;;;2.05;;
24459;SDS011;12630;50.860;5.714;2023-05-06T02:53:23;3.83;;;2.50;;
24459;SDS011;12630;50.860;5.714;2023-05-06T02:55:50;4.45;;;2.40;;
24459;SDS011;12630;50.860;5.714;2023-05-06T02:58:17;4.47;;;3.20;;
24459;SDS011;12630;50.860;5.714;2023-05-06T03:00:44;4.68;;;2.78;;
24459;SDS011;12630;50.860;5.714;2023-05-06T03:03:13;5.00;;;3.13;;
24459;SDS011;12630;50.860;5.714;2023-05-06T03:05:40;5.82;;;2.80;;
24459;SDS011;12630;50.860;5.714;2023-05-06T03:08:07;3.80;;;2.30;;
24459;SDS011;12630;50.860;5.714;2023-05-06T03:10:35;3.40;;;2.58;;
24459;SDS011;12630;50.860;5.714;2023-05-06T03:13:02;2.65;;;2.10;;
24459;SDS011;12630;50.860;5.714;2023-05-06T03:15:29;3.70;;;2.22;;
24459;SDS011;12630;50.860;5.714;2023-05-06T03:17:57;3.90;;;2.05;;
24459;SDS011;12630;50.860;5.714;2023-05-06T03:20:26;4.60;;;2.00;;
24459;SDS011;12630;50.860;5.714;2023-05-06T03:22:53;3.15;;;2.70;;
24459;SDS011;12630;50.860;5.714;2023-05-06T03:25:20;6.40;;;3.25;;
24459;SDS011;12630;50.860;5.714;2023-05-06T03:27:48;3.75;;;2.55;;
24459;SDS011;12630;50.860;5.714;2023-05-06T03:30:15;4.07;;;2.38;;
24459;SDS011;12630;50.860;5.714;2023-05-06T03:32:43;3.50;;;2.33;;
24459;SDS011;12630;50.860;5.714;2023-05-06T03:35:12;3.55;;;2.45;;
24459;SDS011;12630;50.860;5.714;2023-05-06T03:37:41;5.03;;;2.25;;
24459;SDS011;12630;50.860;5.714;2023-05-06T03:40:08;3.17;;;2.30;;
24459;SDS011;12630;50.860;5.714;2023-05-06T03:42:36;2.60;;;2.20;;
24459;SDS011;12630;50.860;5.714;2023-05-06T03:45:03;3.30;;;2.60;;
24459;SDS011;12630;50.860;5.714;2023-05-06T03:47:32;3.38;;;2.50;;
24459;SDS011;12630;50.860;5.714;2023-05-06T03:49:59;3.67;;;2.42;;
24459;SDS011;12630;50.860;5.714;2023-05-06T03:52:27;3.90;;;2.75;;
24459;SDS011;12630;50.860;5.714;2023-05-06T03:54:56;3.28;;;1.88;;
24459;SDS011;12630;50.860;5.714;2023-05-06T03:57:23;4.93;;;2.30;;
24459;SDS011;12630;50.860;5.714;2023-05-06T03:59:51;3.55;;;2.40;;
24459;SDS011;12630;50.860;5.714;2023-05-06T04:02:18;3.78;;;2.40;;
24459;SDS011;12630;50.860;5.714;2023-05-06T04:04:45;4.38;;;2.08;;
24459;SDS011;12630;50.860;5.714;2023-05-06T04:07:12;2.65;;;2.35;;
24459;SDS011;12630;50.860;5.714;2023-05-06T04:09:40;2.90;;;2.13;;
24459;SDS011;12630;50.860;5.714;2023-05-06T04:12:08;3.78;;;2.08;;
24459;SDS011;12630;50.860;5.714;2023-05-06T04:14:35;2.90;;;2.00;;
24459;SDS011;12630;50.860;5.714;2023-05-06T04:17:03;3.10;;;2.42;;
24459;SDS011;12630;50.860;5.714;2023-05-06T04:19:30;2.97;;;2.17;;
24459;SDS011;12630;50.860;5.714;2023-05-06T04:21:57;5.85;;;2.10;;
24459;SDS011;12630;50.860;5.714;2023-05-06T04:24:25;4.13;;;2.35;;
24459;SDS011;12630;50.860;5.714;2023-05-06T04:26:54;2.28;;;1.90;;
24459;SDS011;12630;50.860;5.714;2023-05-06T04:29:23;4.22;;;2.00;;
24459;SDS011;12630;50.860;5.714;2023-05-06T04:31:51;2.72;;;2.08;;
24459;SDS011;12630;50.860;5.714;2023-05-06T04:34:19;1.90;;;1.73;;
24459;SDS011;12630;50.860;5.714;2023-05-06T04:36:46;2.30;;;1.73;;
24459;SDS011;12630;50.860;5.714;2023-05-06T04:39:13;2.60;;;1.88;;
24459;SDS011;12630;50.860;5.714;2023-05-06T04:41:42;1.67;;;1.58;;
24459;SDS011;12630;50.860;5.714;2023-05-06T04:44:10;3.65;;;1.85;;
24459;SDS011;12630;50.860;5.714;2023-05-06T04:46:39;5.40;;;1.50;;
24459;SDS011;12630;50.860;5.714;2023-05-06T04:49:06;1.90;;;1.60;;
24459;SDS011;12630;50.860;5.714;2023-05-06T04:51:33;3.35;;;1.70;;
24459;SDS011;12630;50.860;5.714;2023-05-06T04:54:01;2.13;;;1.50;;
24459;SDS011;12630;50.860;5.714;2023-05-06T04:56:28;2.67;;;1.83;;
24459;SDS011;12630;50.860;5.714;2023-05-06T04:58:55;1.60;;;1.23;;
24459;SDS011;12630;50.860;5.714;2023-05-06T05:01:23;1.60;;;1.42;;
24459;SDS011;12630;50.860;5.714;2023-05-06T05:03:51;2.55;;;1.60;;
24459;SDS011;12630;50.860;5.714;2023-05-06T05:06:19;1.80;;;1.45;;
24459;SDS011;12630;50.860;5.714;2023-05-06T05:08:46;2.40;;;1.63;;
24459;SDS011;12630;50.860;5.714;2023-05-06T05:11:13;1.63;;;1.40;;
24459;SDS011;12630;50.860;5.714;2023-05-06T05:13:41;1.52;;;1.42;;
24459;SDS011;12630;50.860;5.714;2023-05-06T05:16:08;2.05;;;1.33;;
24459;SDS011;12630;50.860;5.714;2023-05-06T05:18:35;2.22;;;1.33;;
24459;SDS011;12630;50.860;5.714;2023-05-06T05:21:04;1.73;;;1.40;;
24459;SDS011;12630;50.860;5.714;2023-05-06T05:23:31;2.05;;;1.30;;
24459;SDS011;12630;50.860;5.714;2023-05-06T05:25:59;2.72;;;1.65;;
24459;SDS011;12630;50.860;5.714;2023-05-06T05:28:26;3.50;;;1.67;;
24459;SDS011;12630;50.860;5.714;2023-05-06T05:30:54;2.47;;;1.58;;
24459;SDS011;12630;50.860;5.714;2023-05-06T05:33:26;1.85;;;1.40;;
24459;SDS011;12630;50.860;5.714;2023-05-06T05:35:53;2.22;;;1.40;;
24459;SDS011;12630;50.860;5.714;2023-05-06T05:38:22;5.60;;;1.55;;
24459;SDS011;12630;50.860;5.714;2023-05-06T05:40:49;1.98;;;1.55;;
24459;SDS011;12630;50.860;5.714;2023-05-06T05:43:17;7.60;;;1.88;;
24459;SDS011;12630;50.860;5.714;2023-05-06T05:45:45;2.83;;;1.30;;
24459;SDS011;12630;50.860;5.714;2023-05-06T05:48:12;2.47;;;1.60;;
24459;SDS011;12630;50.860;5.714;2023-05-06T05:50:40;3.10;;;1.60;;
24459;SDS011;12630;50.860;5.714;2023-05-06T05:53:07;3.15;;;1.45;;
24459;SDS011;12630;50.860;5.714;2023-05-06T05:55:36;2.15;;;1.33;;
24459;SDS011;12630;50.860;5.714;2023-05-06T05:58:03;1.88;;;1.35;;
24459;SDS011;12630;50.860;5.714;2023-05-06T06:00:30;4.18;;;1.60;;
24459;SDS011;12630;50.860;5.714;2023-05-06T06:02:58;2.42;;;1.35;;
24459;SDS011;12630;50.860;5.714;2023-05-06T06:05:25;4.30;;;1.60;;
24459;SDS011;12630;50.860;5.714;2023-05-06T06:07:52;2.60;;;1.35;;
24459;SDS011;12630;50.860;5.714;2023-05-06T06:10:20;2.08;;;1.25;;
24459;SDS011;12630;50.860;5.714;2023-05-06T06:12:48;2.33;;;1.10;;
24459;SDS011;12630;50.860;5.714;2023-05-06T06:15:15;2.28;;;1.20;;
24459;SDS011;12630;50.860;5.714;2023-05-06T06:17:43;1.05;;;0.85;;
24459;SDS011;12630;50.860;5.714;2023-05-06T06:20:11;2.50;;;1.50;;
24459;SDS011;12630;50.860;5.714;2023-05-06T06:22:38;1.92;;;1.10;;
24459;SDS011;12630;50.860;5.714;2023-05-06T06:25:06;1.70;;;0.95;;
24459;SDS011;12630;50.860;5.714;2023-05-06T06:27:34;2.03;;;1.05;;
24459;SDS011;12630;50.860;5.714;2023-05-06T06:30:03;2.90;;;1.15;;
24459;SDS011;12630;50.860;5.714;2023-05-06T06:34:58;4.05;;;1.40;;
24459;SDS011;12630;50.860;5.714;2023-05-06T06:37:26;1.30;;;0.98;;
24459;SDS011;12630;50.860;5.714;2023-05-06T06:39:53;2.28;;;1.50;;
24459;SDS011;12630;50.860;5.714;2023-05-06T06:42:20;2.50;;;1.33;;
24459;SDS011;12630;50.860;5.714;2023-05-06T06:44:47;3.70;;;1.38;;
24459;SDS011;12630;50.860;5.714;2023-05-06T06:47:16;2.90;;;1.15;;
24459;SDS011;12630;50.860;5.714;2023-05-06T06:49:44;4.00;;;1.30;;
24459;SDS011;12630;50.860;5.714;2023-05-06T06:52:11;4.95;;;1.38;;
24459;SDS011;12630;50.860;5.714;2023-05-06T06:54:38;3.67;;;1.35;;
24459;SDS011;12630;50.860;5.714;2023-05-06T06:57:05;5.22;;;1.52;;
24459;SDS011;12630;50.860;5.714;2023-05-06T06:59:33;3.05;;;1.77;;
24459;SDS011;12630;50.860;5.714;2023-05-06T07:02:00;3.78;;;1.52;;
24459;SDS011;12630;50.860;5.714;2023-05-06T07:04:29;3.88;;;1.40;;
24459;SDS011;12630;50.860;5.714;2023-05-06T07:06:56;6.53;;;1.52;;
24459;SDS011;12630;50.860;5.714;2023-05-06T07:09:24;5.45;;;1.40;;
24459;SDS011;12630;50.860;5.714;2023-05-06T07:11:51;3.05;;;1.55;;
24459;SDS011;12630;50.860;5.714;2023-05-06T07:14:19;5.00;;;1.45;;
24459;SDS011;12630;50.860;5.714;2023-05-06T07:16:46;2.92;;;1.35;;
24459;SDS011;12630;50.860;5.714;2023-05-06T07:19:13;4.78;;;1.45;;
24459;SDS011;12630;50.860;5.714;2023-05-06T07:21:42;6.97;;;1.50;;
24459;SDS011;12630;50.860;5.714;2023-05-06T07:24:09;1.17;;;1.03;;
24459;SDS011;12630;50.860;5.714;2023-05-06T07:26:36;4.40;;;1.30;;
24459;SDS011;12630;50.860;5.714;2023-05-06T07:29:04;3.47;;;1.48;;
24459;SDS011;12630;50.860;5.714;2023-05-06T07:31:31;8.57;;;1.70;;
24459;SDS011;12630;50.860;5.714;2023-05-06T07:33:59;4.80;;;1.27;;
24459;SDS011;12630;50.860;5.714;2023-05-06T07:36:26;2.42;;;1.15;;
24459;SDS011;12630;50.860;5.714;2023-05-06T07:38:56;3.70;;;1.48;;
24459;SDS011;12630;50.860;5.714;2023-05-06T07:41:23;4.50;;;1.50;;
24459;SDS011;12630;50.860;5.714;2023-05-06T07:43:51;3.50;;;1.85;;
24459;SDS011;12630;50.860;5.714;2023-05-06T07:46:18;5.45;;;1.30;;
24459;SDS011;12630;50.860;5.714;2023-05-06T07:48:45;5.13;;;1.60;;
24459;SDS011;12630;50.860;5.714;2023-05-06T07:51:13;1.58;;;1.17;;
24459;SDS011;12630;50.860;5.714;2023-05-06T07:53:40;1.73;;;1.15;;
24459;SDS011;12630;50.860;5.714;2023-05-06T07:56:09;2.67;;;1.02;;
24459;SDS011;12630;50.860;5.714;2023-05-06T07:58:36;1.83;;;1.10;;
24459;SDS011;12630;50.860;5.714;2023-05-06T08:01:03;3.53;;;1.00;;
24459;SDS011;12630;50.860;5.714;2023-05-06T08:03:31;10.30;;;2.38;;
24459;SDS011;12630;50.860;5.714;2023-05-06T08:05:58;2.38;;;1.05;;
24459;SDS011;12630;50.860;5.714;2023-05-06T08:08:25;3.17;;;1.08;;
24459;SDS011;12630;50.860;5.714;2023-05-06T08:10:53;3.80;;;1.10;;
24459;SDS011;12630;50.860;5.714;2023-05-06T08:13:21;3.53;;;1.13;;
24459;SDS011;12630;50.860;5.714;2023-05-06T08:15:49;3.92;;;1.15;;
24459;SDS011;12630;50.860;5.714;2023-05-06T08:18:17;2.00;;;1.00;;
24459;SDS011;12630;50.860;5.714;2023-05-06T08:20:44;2.15;;;1.10;;
24459;SDS011;12630;50.860;5.714;2023-05-06T08:23:11;1.60;;;0.95;;
24459;SDS011;12630;50.860;5.714;2023-05-06T08:25:39;1.42;;;1.00;;
24459;SDS011;12630;50.860;5.714;2023-05-06T08:28:06;2.05;;;0.93;;
24459;SDS011;12630;50.860;5.714;2023-05-06T08:30:35;3.53;;;1.23;;
24459;SDS011;12630;50.860;5.714;2023-05-06T08:33:02;2.03;;;1.30;;
24459;SDS011;12630;50.860;5.714;2023-05-06T08:35:29;1.48;;;1.05;;
24459;SDS011;12630;50.860;5.714;2023-05-06T08:37:56;2.50;;;1.30;;
24459;SDS011;12630;50.860;5.714;2023-05-06T08:40:25;2.88;;;1.17;;
24459;SDS011;12630;50.860;5.714;2023-05-06T08:42:54;3.25;;;1.40;;
24459;SDS011;12630;50.860;5.714;2023-05-06T08:45:22;3.38;;;1.00;;
24459;SDS011;12630;50.860;5.714;2023-05-06T08:47:51;3.08;;;1.40;;
24459;SDS011;12630;50.860;5.714;2023-05-06T08:50:18;3.38;;;1.25;;
24459;SDS011;12630;50.860;5.714;2023-05-06T08:52:46;3.78;;;0.98;;
24459;SDS011;12630;50.860;5.714;2023-05-06T08:55:14;2.08;;;1.30;;
24459;SDS011;12630;50.860;5.714;2023-05-06T08:57:42;3.05;;;1.38;;
24459;SDS011;12630;50.860;5.714;2023-05-06T09:00:11;4.95;;;1.40;;
24459;SDS011;12630;50.860;5.714;2023-05-06T09:02:39;3.33;;;1.60;;
24459;SDS011;12630;50.860;5.714;2023-05-06T09:05:09;2.83;;;1.30;;
24459;SDS011;12630;50.860;5.714;2023-05-06T09:07:36;8.75;;;1.30;;
24459;SDS011;12630;50.860;5.714;2023-05-06T09:10:04;3.00;;;1.30;;
24459;SDS011;12630;50.860;5.714;2023-05-06T09:12:34;3.10;;;1.42;;
24459;SDS011;12630;50.860;5.714;2023-05-06T09:15:03;4.55;;;1.50;;
24459;SDS011;12630;50.860;5.714;2023-05-06T09:17:31;3.60;;;1.45;;
24459;SDS011;12630;50.860;5.714;2023-05-06T09:19:58;3.55;;;1.40;;
24459;SDS011;12630;50.860;5.714;2023-05-06T09:22:28;2.40;;;1.50;;
24459;SDS011;12630;50.860;5.714;2023-05-06T09:24:56;3.08;;;1.73;;
24459;SDS011;12630;50.860;5.714;2023-05-06T09:27:24;3.85;;;1.25;;
24459;SDS011;12630;50.860;5.714;2023-05-06T09:29:58;2.40;;;1.50;;
24459;SDS011;12630;50.860;5.714;2023-05-06T09:32:27;2.45;;;1.20;;
24459;SDS011;12630;50.860;5.714;2023-05-06T09:34:54;2.25;;;0.95;;
24459;SDS011;12630;50.860;5.714;2023-05-06T09:37:21;2.55;;;1.38;;
24459;SDS011;12630;50.860;5.714;2023-05-06T09:39:54;5.90;;;1.92;;
24459;SDS011;12630;50.860;5.714;2023-05-06T09:42:22;3.58;;;2.05;;
24459;SDS011;12630;50.860;5.714;2023-05-06T09:44:53;3.08;;;1.30;;
24459;SDS011;12630;50.860;5.714;2023-05-06T09:47:22;3.30;;;1.27;;
24459;SDS011;12630;50.860;5.714;2023-05-06T09:49:54;2.75;;;1.35;;
24459;SDS011;12630;50.860;5.714;2023-05-06T09:52:23;3.10;;;1.42;;
24459;SDS011;12630;50.860;5.714;2023-05-06T09:54:54;3.38;;;1.23;;
24459;SDS011;12630;50.860;5.714;2023-05-06T09:59:49;2.70;;;1.23;;
24459;SDS011;12630;50.860;5.714;2023-05-06T10:02:17;3.17;;;1.48;;
24459;SDS011;12630;50.860;5.714;2023-05-06T10:04:45;4.72;;;1.40;;
24459;SDS011;12630;50.860;5.714;2023-05-06T10:07:16;4.68;;;1.60;;
24459;SDS011;12630;50.860;5.714;2023-05-06T10:09:47;4.75;;;1.17;;
24459;SDS011;12630;50.860;5.714;2023-05-06T10:12:17;2.35;;;1.05;;
24459;SDS011;12630;50.860;5.714;2023-05-06T10:17:12;2.08;;;1.23;;
24459;SDS011;12630;50.860;5.714;2023-05-06T10:19:42;5.75;;;1.27;;
24459;SDS011;12630;50.860;5.714;2023-05-06T10:22:14;1.85;;;1.00;;
24459;SDS011;12630;50.860;5.714;2023-05-06T10:24:46;1.95;;;0.80;;
24459;SDS011;12630;50.860;5.714;2023-05-06T10:27:22;2.70;;;0.98;;
24459;SDS011;12630;50.860;5.714;2023-05-06T10:29:51;2.47;;;1.05;;
24459;SDS011;12630;50.860;5.714;2023-05-06T10:32:23;4.07;;;1.45;;
24459;SDS011;12630;50.860;5.714;2023-05-06T10:34:56;2.80;;;1.10;;
24459;SDS011;12630;50.860;5.714;2023-05-06T10:37:31;4.13;;;1.27;;
24459;SDS011;12630;50.860;5.714;2023-05-06T10:39:59;2.97;;;1.10;;
24459;SDS011;12630;50.860;5.714;2023-05-06T10:42:33;3.72;;;0.90;;
24459;SDS011;12630;50.860;5.714;2023-05-06T10:45:01;2.50;;;1.10;;
24459;SDS011;12630;50.860;5.714;2023-05-06T10:50:32;2.58;;;1.05;;
24459;SDS011;12630;50.860;5.714;2023-05-06T10:53:00;4.03;;;1.13;;
24459;SDS011;12630;50.860;5.714;2023-05-06T10:55:28;4.60;;;1.15;;
24459;SDS011;12630;50.860;5.714;2023-05-06T10:58:00;3.28;;;0.73;;
24459;SDS011;12630;50.860;5.714;2023-05-06T11:00:31;2.88;;;1.10;;
24459;SDS011;12630;50.860;5.714;2023-05-06T11:03:00;3.00;;;1.05;;
24459;SDS011;12630;50.860;5.714;2023-05-06T11:05:28;2.83;;;0.70;;
24459;SDS011;12630;50.860;5.714;2023-05-06T11:08:08;2.95;;;1.30;;
24459;SDS011;12630;50.860;5.714;2023-05-06T11:10:35;1.60;;;0.90;;
24459;SDS011;12630;50.860;5.714;2023-05-06T11:13:20;2.83;;;1.10;;
24459;SDS011;12630;50.860;5.714;2023-05-06T11:15:49;1.50;;;0.70;;
24459;SDS011;12630;50.860;5.714;2023-05-06T11:24:07;2.60;;;0.93;;
24459;SDS011;12630;50.860;5.714;2023-05-06T11:26:39;2.10;;;0.80;;
24459;SDS011;12630;50.860;5.714;2023-05-06T11:29:08;3.38;;;0.70;;
24459;SDS011;12630;50.860;5.714;2023-05-06T11:31:40;5.57;;;1.00;;
24459;SDS011;12630;50.860;5.714;2023-05-06T11:34:09;1.42;;;0.60;;
24459;SDS011;12630;50.860;5.714;2023-05-06T11:36:44;1.90;;;0.85;;
24459;SDS011;12630;50.860;5.714;2023-05-06T11:39:16;1.27;;;0.60;;
24459;SDS011;12630;50.860;5.714;2023-05-06T11:41:43;1.67;;;0.57;;
24459;SDS011;12630;50.860;5.714;2023-05-06T11:44:22;2.45;;;0.75;;
24459;SDS011;12630;50.860;5.714;2023-05-06T11:46:59;2.22;;;0.73;;
24459;SDS011;12630;50.860;5.714;2023-05-06T11:49:34;2.33;;;0.73;;
24459;SDS011;12630;50.860;5.714;2023-05-06T11:52:03;3.08;;;0.77;;
24459;SDS011;12630;50.860;5.714;2023-05-06T11:54:32;1.50;;;0.77;;
24459;SDS011;12630;50.860;5.714;2023-05-06T11:57:01;1.15;;;0.63;;
24459;SDS011;12630;50.860;5.714;2023-05-06T11:59:30;2.75;;;0.88;;
24459;SDS011;12630;50.860;5.714;2023-05-06T12:01:59;2.28;;;0.65;;
24459;SDS011;12630;50.860;5.714;2023-05-06T12:04:35;3.25;;;0.75;;
24459;SDS011;12630;50.860;5.714;2023-05-06T12:07:04;3.03;;;0.80;;
24459;SDS011;12630;50.860;5.714;2023-05-06T12:09:33;3.08;;;0.70;;
24459;SDS011;12630;50.860;5.714;2023-05-06T12:12:01;2.67;;;0.90;;
24459;SDS011;12630;50.860;5.714;2023-05-06T12:14:31;1.58;;;1.20;;
24459;SDS011;12630;50.860;5.714;2023-05-06T12:16:58;2.78;;;0.80;;
24459;SDS011;12630;50.860;5.714;2023-05-06T12:19:27;3.17;;;0.70;;
24459;SDS011;12630;50.860;5.714;2023-05-06T12:21:54;4.20;;;0.80;;
24459;SDS011;12630;50.860;5.714;2023-05-06T12:24:25;2.15;;;0.80;;
24459;SDS011;12630;50.860;5.714;2023-05-06T12:26:54;1.30;;;0.68;;
24459;SDS011;12630;50.860;5.714;2023-05-06T12:29:21;3.17;;;1.08;;
24459;SDS011;12630;50.860;5.714;2023-05-06T12:32:04;1.55;;;0.90;;
24459;SDS011;12630;50.860;5.714;2023-05-06T12:34:37;2.50;;;1.08;;
24459;SDS011;12630;50.860;5.714;2023-05-06T12:37:05;4.90;;;0.95;;
24459;SDS011;12630;50.860;5.714;2023-05-06T12:39:33;3.42;;;0.85;;
24459;SDS011;12630;50.860;5.714;2023-05-06T12:42:01;2.97;;;0.85;;
24459;SDS011;12630;50.860;5.714;2023-05-06T12:44:32;6.00;;;4.28;;
24459;SDS011;12630;50.860;5.714;2023-05-06T12:47:03;5.82;;;1.88;;
24459;SDS011;12630;50.860;5.714;2023-05-06T12:49:47;0.77;;;0.77;;
24459;SDS011;12630;50.860;5.714;2023-05-06T12:52:16;2.90;;;0.98;;
24459;SDS011;12630;50.860;5.714;2023-05-06T12:54:44;1.27;;;0.80;;
24459;SDS011;12630;50.860;5.714;2023-05-06T12:57:11;4.72;;;1.38;;
24459;SDS011;12630;50.860;5.714;2023-05-06T12:59:39;3.42;;;0.80;;
24459;SDS011;12630;50.860;5.714;2023-05-06T13:02:09;2.23;;;0.80;;
24459;SDS011;12630;50.860;5.714;2023-05-06T13:04:37;3.83;;;0.93;;
24459;SDS011;12630;50.860;5.714;2023-05-06T13:07:04;1.52;;;0.95;;
24459;SDS011;12630;50.860;5.714;2023-05-06T13:09:32;1.67;;;0.80;;
24459;SDS011;12630;50.860;5.714;2023-05-06T13:11:59;1.45;;;1.08;;
24459;SDS011;12630;50.860;5.714;2023-05-06T13:14:28;2.15;;;0.95;;
24459;SDS011;12630;50.860;5.714;2023-05-06T13:16:56;1.90;;;1.00;;
24459;SDS011;12630;50.860;5.714;2023-05-06T13:19:30;3.45;;;1.48;;
24459;SDS011;12630;50.860;5.714;2023-05-06T13:21:57;1.10;;;1.00;;
24459;SDS011;12630;50.860;5.714;2023-05-06T13:24:24;2.30;;;1.13;;
24459;SDS011;12630;50.860;5.714;2023-05-06T13:26:52;5.07;;;1.40;;
24459;SDS011;12630;50.860;5.714;2023-05-06T13:29:20;2.67;;;1.40;;
24459;SDS011;12630;50.860;5.714;2023-05-06T13:31:48;3.50;;;1.35;;
24459;SDS011;12630;50.860;5.714;2023-05-06T13:34:15;2.45;;;1.20;;
24459;SDS011;12630;50.860;5.714;2023-05-06T13:36:44;4.20;;;1.40;;
24459;SDS011;12630;50.860;5.714;2023-05-06T13:39:13;2.30;;;1.40;;
24459;SDS011;12630;50.860;5.714;2023-05-06T13:41:41;2.83;;;1.00;;
24459;SDS011;12630;50.860;5.714;2023-05-06T13:44:11;3.55;;;1.60;;
24459;SDS011;12630;50.860;5.714;2023-05-06T13:46:39;2.00;;;1.13;;
24459;SDS011;12630;50.860;5.714;2023-05-06T13:49:06;4.43;;;1.65;;
24459;SDS011;12630;50.860;5.714;2023-05-06T13:51:34;3.50;;;1.33;;
24459;SDS011;12630;50.860;5.714;2023-05-06T13:54:02;3.08;;;1.35;;
24459;SDS011;12630;50.860;5.714;2023-05-06T13:56:30;3.60;;;1.97;;
24459;SDS011;12630;50.860;5.714;2023-05-06T13:58:57;3.60;;;1.45;;
24459;SDS011;12630;50.860;5.714;2023-05-06T14:01:25;4.22;;;1.30;;
24459;SDS011;12630;50.860;5.714;2023-05-06T14:03:52;3.20;;;1.40;;
24459;SDS011;12630;50.860;5.714;2023-05-06T14:06:19;2.63;;;1.35;;
24459;SDS011;12630;50.860;5.714;2023-05-06T14:08:47;4.57;;;0.80;;
24459;SDS011;12630;50.860;5.714;2023-05-06T14:11:15;3.45;;;1.20;;
24459;SDS011;12630;50.860;5.714;2023-05-06T14:13:42;2.08;;;1.00;;
24459;SDS011;12630;50.860;5.714;2023-05-06T14:16:10;3.28;;;1.48;;
24459;SDS011;12630;50.860;5.714;2023-05-06T14:18:37;4.68;;;1.13;;
24459;SDS011;12630;50.860;5.714;2023-05-06T14:21:04;1.80;;;0.80;;
24459;SDS011;12630;50.860;5.714;2023-05-06T14:23:32;1.30;;;0.80;;
24459;SDS011;12630;50.860;5.714;2023-05-06T14:25:59;2.38;;;0.90;;
24459;SDS011;12630;50.860;5.714;2023-05-06T14:28:28;4.43;;;0.77;;
24459;SDS011;12630;50.860;5.714;2023-05-06T14:30:55;2.53;;;1.17;;
24459;SDS011;12630;50.860;5.714;2023-05-06T14:33:23;2.58;;;0.85;;
24459;SDS011;12630;50.860;5.714;2023-05-06T14:35:50;2.83;;;0.80;;
24459;SDS011;12630;50.860;5.714;2023-05-06T14:38:18;2.45;;;1.00;;
24459;SDS011;12630;50.860;5.714;2023-05-06T14:40:45;1.88;;;0.70;;
24459;SDS011;12630;50.860;5.714;2023-05-06T14:43:12;1.67;;;0.98;;
24459;SDS011;12630;50.860;5.714;2023-05-06T14:45:41;1.35;;;0.82;;
24459;SDS011;12630;50.860;5.714;2023-05-06T14:48:08;1.92;;;0.95;;
24459;SDS011;12630;50.860;5.714;2023-05-06T14:50:36;2.83;;;0.80;;
24459;SDS011;12630;50.860;5.714;2023-05-06T14:53:03;3.50;;;1.40;;
24459;SDS011;12630;50.860;5.714;2023-05-06T14:55:30;2.92;;;1.15;;
24459;SDS011;12630;50.860;5.714;2023-05-06T14:57:58;1.63;;;0.95;;
24459;SDS011;12630;50.860;5.714;2023-05-06T15:00:25;1.83;;;0.80;;
24459;SDS011;12630;50.860;5.714;2023-05-06T15:02:54;1.85;;;0.95;;
24459;SDS011;12630;50.860;5.714;2023-05-06T15:05:21;3.17;;;1.27;;
24459;SDS011;12630;50.860;5.714;2023-05-06T15:07:48;3.33;;;1.17;;
24459;SDS011;12630;50.860;5.714;2023-05-06T15:10:16;2.40;;;1.30;;
24459;SDS011;12630;50.860;5.714;2023-05-06T15:12:43;1.00;;;0.80;;